Sitka, South Dakota
Current Conditions -  °F | °C
As of 7:52 AM on Thursday 23 Oct 2014 (Local Time) from KMBG Reporting Station
Clear Clear  
Wind Chill:   Ceiling: Unl
Heat Index:   Visibility: 10mi
Dew Point:   Wind: 6mph
Humidity: 82%   Direction: 120°ESE
Pressure: 29.92"   Gusts: NA
Location:  45.4184°N, 100.09°W
Report Text: KMBG 231252Z AUTO 12005KT 10SM CLR 06/03 A2992 RMK AO2 SLP139 T00560028
Loading
Personal Weather Stations






























Interactive Weather Map
Tropical Storm Tracking
New forecast layout! Learn more

10-Day Weather Forecast

Advertisements
Track Severe Weather on mobile